Time;durP1;ratioP1;P1;durP2;ratioP2;P2;SDS_P1;SDS_P2;PMS_P1;PMS_P2;Temp;Humidity;BMP_temperature;BMP_pressure;BME280_temperature;BME280_humidity;BME280_pressure;Samples;Min_cycle;Max_cycle;Signal;HPM_P1;HPM_P2
2022/05/15 00:02:42;;;;;;;5.50;1.80;;;8.20;1.00;;;;;;5094257;28;20388;-86
2022/05/15 00:05:09;;;;;;;8.77;4.00;;;8.20;1.00;;;;;;5100977;28;20192;-86
2022/05/15 00:07:36;;;;;;;8.63;4.43;;;8.20;1.00;;;;;;5114789;28;20239;-86
2022/05/15 00:10:03;;;;;;;5.93;2.70;;;8.20;1.00;;;;;;5114647;28;20223;-86
2022/05/15 00:12:32;;;;;;;10.17;2.50;;;8.20;1.00;;;;;;5114650;28;20287;-85
2022/05/15 00:14:59;;;;;;;7.50;2.20;;;8.20;1.00;;;;;;5114093;28;20253;-85
2022/05/15 00:17:26;;;;;;;7.50;2.70;;;8.10;1.00;;;;;;5114364;28;20319;-86
2022/05/15 00:19:53;;;;;;;7.73;2.20;;;8.10;1.00;;;;;;5114029;28;20246;-85
2022/05/15 00:22:20;;;;;;;6.03;2.20;;;8.10;1.00;;;;;;5114115;28;20745;-85
2022/05/15 00:24:47;;;;;;;4.80;2.20;;;8.00;1.00;;;;;;5114261;28;20188;-86
2022/05/15 00:27:13;;;;;;;8.67;2.97;;;8.00;1.00;;;;;;5113951;28;20283;-85
2022/05/15 00:29:42;;;;;;;7.33;2.60;;;8.00;1.00;;;;;;5114078;28;20238;-85
2022/05/15 00:32:09;;;;;;;4.93;2.30;;;7.90;1.00;;;;;;5114128;28;20230;-85
2022/05/15 00:34:36;;;;;;;10.73;2.40;;;7.90;1.00;;;;;;5107744;28;20594;-86
2022/05/15 00:37:03;;;;;;;7.00;2.07;;;7.80;1.00;;;;;;5093597;28;20220;-85
2022/05/15 00:39:30;;;;;;;7.73;2.33;;;7.80;1.00;;;;;;5093575;28;20283;-85
2022/05/15 00:41:57;;;;;;;8.17;2.20;;;7.80;1.00;;;;;;5092495;28;20257;-86
2022/05/15 00:44:24;;;;;;;4.73;2.00;;;7.70;1.00;;;;;;5093472;28;20223;-85
2022/05/15 00:46:53;;;;;;;6.17;2.57;;;7.70;1.00;;;;;;5093480;28;20235;-86
2022/05/15 00:49:19;;;;;;;5.67;1.67;;;7.70;1.00;;;;;;5093223;28;20171;-86
2022/05/15 00:51:50;;;;;;;7.63;2.70;;;7.70;1.00;;;;;;5093149;28;20286;-86
2022/05/15 00:54:22;;;;;;;8.53;2.90;;;7.60;1.00;;;;;;5093370;28;20229;-86
2022/05/15 00:56:54;;;;;;;6.37;2.50;;;7.60;22.90;;;;;;5093064;28;20663;-86
2022/05/15 00:59:24;;;;;;;6.77;2.60;;;7.60;60.00;;;;;;5093403;28;20192;-86
2022/05/15 01:01:52;;;;;;;8.27;3.13;;;7.60;92.10;;;;;;5093139;28;20239;-86
2022/05/15 01:04:19;;;;;;;4.53;2.23;;;7.60;93.60;;;;;;5093016;28;20220;-86
2022/05/15 01:06:46;;;;;;;5.47;2.27;;;7.60;99.20;;;;;;5092910;28;20231;-86
2022/05/15 01:09:14;;;;;;;8.40;2.60;;;7.50;99.90;;;;;;5092806;28;20687;-86
2022/05/15 01:11:43;;;;;;;5.27;2.40;;;7.50;99.90;;;;;;5093278;28;20278;-85
2022/05/15 01:14:13;;;;;;;5.33;2.40;;;7.50;99.90;;;;;;5093154;28;20247;-86
2022/05/15 01:16:40;;;;;;;7.30;2.47;;;7.50;99.90;;;;;;5093298;28;20686;-86
2022/05/15 01:19:08;;;;;;;6.57;2.70;;;7.40;99.90;;;;;;5092963;28;20288;-86
2022/05/15 01:21:40;;;;;;;7.53;2.77;;;7.50;99.90;;;;;;5093829;28;20255;-86
2022/05/15 01:24:09;;;;;;;8.10;2.73;;;7.50;99.90;;;;;;5092640;28;20705;-86
2022/05/15 01:26:38;;;;;;;7.80;2.73;;;7.40;99.90;;;;;;5092455;28;20191;-85
2022/05/15 01:29:06;;;;;;;5.17;2.27;;;7.50;99.90;;;;;;5092909;28;20230;-86
2022/05/15 01:31:34;;;;;;;7.20;2.77;;;7.40;99.90;;;;;;5092744;28;20198;-85
2022/05/15 01:34:00;;;;;;;8.27;2.60;;;7.40;99.90;;;;;;5092998;28;20284;-85
2022/05/15 01:36:28;;;;;;;9.23;2.73;;;7.40;99.90;;;;;;5092836;28;20330;-87
2022/05/15 01:38:57;;;;;;;8.03;2.83;;;7.40;99.90;;;;;;5092667;28;20592;-86
2022/05/15 01:41:25;;;;;;;7.67;2.87;;;7.40;99.90;;;;;;5092615;28;20264;-86
2022/05/15 01:43:53;;;;;;;7.87;2.40;;;7.40;99.90;;;;;;5092596;28;20274;-86
2022/05/15 01:46:21;;;;;;;8.77;3.13;;;7.40;99.90;;;;;;5092802;28;20192;-86
2022/05/15 01:48:48;;;;;;;8.00;2.33;;;7.40;99.90;;;;;;5092222;28;20284;-86
2022/05/15 01:51:15;;;;;;;8.87;2.60;;;7.40;99.90;;;;;;5092259;28;20558;-86
2022/05/15 01:53:42;;;;;;;11.57;3.20;;;7.40;99.90;;;;;;5094330;28;20768;-86
2022/05/15 01:56:11;;;;;;;8.63;3.37;;;7.40;99.90;;;;;;5096503;28;20215;-86
2022/05/15 01:58:39;;;;;;;8.70;2.93;;;7.40;99.90;;;;;;5096772;28;20241;-86
2022/05/15 02:01:07;;;;;;;7.73;2.83;;;7.40;99.90;;;;;;5096683;28;20191;-86
2022/05/15 02:03:35;;;;;;;9.60;2.83;;;7.40;1.00;;;;;;5096719;28;20278;-86
2022/05/15 02:06:02;;;;;;;7.47;2.70;;;7.40;1.00;;;;;;5096425;28;20196;-86
2022/05/15 02:08:30;;;;;;;10.47;2.87;;;7.40;99.90;;;;;;5096605;28;20290;-86
2022/05/15 02:10:57;;;;;;;10.27;3.30;;;7.40;1.00;;;;;;5096200;28;20715;-86
2022/05/15 02:13:25;;;;;;;8.37;3.13;;;7.40;1.00;;;;;;5096511;28;20191;-86
2022/05/15 02:15:52;;;;;;;7.40;3.17;;;7.30;1.00;;;;;;5096315;28;20639;-85
2022/05/15 02:18:19;;;;;;;11.27;3.20;;;7.30;1.00;;;;;;5096443;28;20193;-86
2022/05/15 02:20:47;;;;;;;7.50;3.00;;;7.30;1.00;;;;;;5096190;28;20699;-86
2022/05/15 02:23:13;;;;;;;10.07;3.10;;;7.30;1.00;;;;;;5096241;28;20656;-86
2022/05/15 02:25:40;;;;;;;11.20;3.23;;;7.30;1.00;;;;;;5096265;28;20271;-86
2022/05/15 02:28:08;;;;;;;10.93;2.77;;;7.20;1.00;;;;;;5095870;28;20231;-86
2022/05/15 02:30:36;;;;;;;9.07;2.87;;;7.20;1.00;;;;;;5096121;28;20279;-86
2022/05/15 02:33:03;;;;;;;6.57;3.43;;;7.10;1.00;;;;;;5095745;28;20282;-86
2022/05/15 02:35:31;;;;;;;6.03;2.50;;;7.00;99.90;;;;;;5096137;28;20221;-86
2022/05/15 02:37:58;;;;;;;8.07;2.67;;;7.00;99.90;;;;;;5096037;28;20644;-85
2022/05/15 02:40:26;;;;;;;5.10;2.83;;;6.90;99.90;;;;;;5095927;28;20313;-85
2022/05/15 02:42:55;;;;;;;8.27;3.13;;;6.90;99.90;;;;;;5095883;28;20215;-87
2022/05/15 02:45:22;;;;;;;10.10;2.97;;;6.80;99.90;;;;;;5095514;28;20205;-86
2022/05/15 02:47:51;;;;;;;10.87;3.30;;;6.80;99.90;;;;;;5095555;28;20224;-86
2022/05/15 02:53:03;;;;;;;7.57;3.13;;;6.70;1.00;;;;;;5095518;28;20652;-86
2022/05/15 02:55:30;;;;;;;9.07;3.40;;;6.70;1.00;;;;;;5108214;28;20221;-86
2022/05/15 02:57:57;;;;;;;8.10;3.40;;;6.60;1.00;;;;;;5116156;28;20187;-86
2022/05/15 03:00:26;;;;;;;10.63;3.47;;;6.60;1.00;;;;;;5116002;28;20191;-86
2022/05/15 03:02:55;;;;;;;6.97;2.80;;;6.60;1.00;;;;;;5111427;28;20303;-86
2022/05/15 03:05:23;;;;;;;8.53;3.20;;;6.60;1.00;;;;;;5094788;28;20283;-86
2022/05/15 03:07:50;;;;;;;10.17;3.13;;;6.60;1.00;;;;;;5095116;28;20649;-86
2022/05/15 03:10:21;;;;;;;12.60;3.70;;;6.60;1.00;;;;;;5097542;28;20282;-85
2022/05/15 03:12:48;;;;;;;6.03;3.40;;;6.60;1.00;;;;;;5096864;28;20187;-83
2022/05/15 03:15:15;;;;;;;6.40;2.97;;;6.60;1.00;;;;;;5095485;28;20278;-85
2022/05/15 03:17:42;;;;;;;8.00;2.70;;;6.60;1.00;;;;;;5095227;28;20199;-85
2022/05/15 03:20:14;;;;;;;4.73;2.40;;;6.60;1.00;;;;;;5097818;28;20299;-84
2022/05/15 03:22:41;;;;;;;11.50;3.10;;;6.70;1.00;;;;;;5095263;28;20207;-85
2022/05/15 03:25:09;;;;;;;6.70;2.77;;;6.70;1.00;;;;;;5095031;28;20191;-85
2022/05/15 03:27:37;;;;;;;8.97;3.20;;;6.70;1.00;;;;;;5094836;28;20682;-85
2022/05/15 03:30:04;;;;;;;7.70;3.40;;;6.80;1.00;;;;;;5097641;28;20242;-87
2022/05/15 03:32:31;;;;;;;9.30;3.47;;;6.80;1.00;;;;;;5096897;28;20284;-88
2022/05/15 03:34:58;;;;;;;9.73;3.10;;;6.90;1.00;;;;;;5096370;28;20191;-85
2022/05/15 03:37:26;;;;;;;8.30;3.53;;;7.00;1.00;;;;;;5096749;28;20274;-86
2022/05/15 03:39:55;;;;;;;7.67;3.13;;;7.10;1.00;;;;;;5096317;28;20688;-85
2022/05/15 03:42:22;;;;;;;9.07;3.50;;;7.20;1.00;;;;;;5094732;28;20254;-85
2022/05/15 03:44:49;;;;;;;9.63;3.20;;;7.30;1.00;;;;;;5104178;28;20187;-85
2022/05/15 03:47:16;;;;;;;7.70;3.50;;;7.30;33.50;;;;;;5115807;28;20230;-85
2022/05/15 03:49:56;;;;;;;7.10;3.47;;;7.50;99.90;;;;;;5116876;28;20277;-87
2022/05/15 03:52:23;;;;;;;10.73;3.93;;;7.60;99.90;;;;;;5113142;28;20234;-87
2022/05/15 03:54:52;;;;;;;8.10;3.20;;;8.10;1.00;;;;;;5097988;28;20763;-86
2022/05/15 03:57:19;;;;;;;7.80;2.80;;;9.00;1.00;;;;;;5094774;28;20224;-86
2022/05/15 03:59:46;;;;;;;7.03;2.53;;;9.90;1.00;;;;;;5096156;28;20281;-87
2022/05/15 04:02:13;;;;;;;7.05;2.40;;;11.00;1.00;;;;;;5094009;28;20217;-86
2022/05/15 04:04:40;;;;;;;6.43;1.80;;;12.10;1.00;;;;;;5098761;28;20289;-86
2022/05/15 04:07:07;;;;;;;7.10;2.17;;;13.10;99.90;;;;;;5096487;28;20282;-85
2022/05/15 04:09:36;;;;;;;6.70;1.80;;;14.00;1.00;;;;;;5093983;28;20698;-85
2022/05/15 04:12:05;;;;;;;6.00;1.77;;;14.80;99.90;;;;;;5095878;28;20202;-85
2022/05/15 04:14:32;;;;;;;4.30;1.75;;;15.50;1.00;;;;;;5096306;28;20276;-85
2022/05/15 04:16:59;;;;;;;5.20;1.65;;;16.10;99.90;;;;;;5095554;28;20279;-85
2022/05/15 04:19:26;;;;;;;4.78;1.73;;;16.80;9.40;;;;;;5093984;28;20227;-85
2022/05/15 04:21:53;;;;;;;3.33;1.77;;;17.60;1.00;;;;;;5095696;28;20158;-87
2022/05/15 04:24:20;;;;;;;;;;;18.40;1.00;;;;;;5117518;28;20214;-86
2022/05/15 04:26:48;;;;;;;4.25;1.80;;;19.10;99.90;;;;;;5114335;28;20098;-86
2022/05/15 04:29:16;;;;;;;;;;;19.70;99.90;;;;;;5114657;28;20102;-86
2022/05/15 04:31:43;;;;;;;;;;;20.30;99.90;;;;;;5114285;28;19945;-86
2022/05/15 04:34:09;;;;;;;;;;;20.80;2.10;;;;;;5113960;28;20296;-84
2022/05/15 04:36:36;;;;;;;4.15;2.10;;;21.40;1.00;;;;;;5114123;28;20054;-84
2022/05/15 04:39:05;;;;;;;5.20;1.95;;;22.00;1.00;;;;;;5115996;28;20179;-86
2022/05/15 04:41:37;;;;;;;4.25;2.15;;;22.60;1.00;;;;;;5114955;28;20201;-89
2022/05/15 04:44:04;;;;;;;4.55;2.13;;;23.10;1.00;;;;;;5109250;28;20203;-86
2022/05/15 04:46:33;;;;;;;6.10;2.35;;;23.60;1.00;;;;;;5093649;28;20215;-86
2022/05/15 04:49:00;;;;;;;5.10;2.30;;;23.90;1.00;;;;;;5093265;28;20707;-85
2022/05/15 04:51:28;;;;;;;7.28;2.25;;;24.00;1.00;;;;;;5093376;28;20202;-86
2022/05/15 04:53:55;;;;;;;7.63;2.55;;;24.30;1.00;;;;;;5093890;28;20227;-85
2022/05/15 04:56:23;;;;;;;6.15;2.20;;;24.70;1.00;;;;;;5113667;28;20281;-85
2022/05/15 04:58:49;;;;;;;4.57;1.80;;;25.30;1.00;;;;;;5113691;28;20233;-85
2022/05/15 05:01:17;;;;;;;;;;;25.90;1.00;;;;;;5114087;28;20225;-85
2022/05/15 05:03:46;;;;;;;7.97;2.13;;;26.30;1.00;;;;;;5092885;28;19978;-85
2022/05/15 05:06:13;;;;;;;;;;;26.50;1.00;;;;;;5093085;28;20241;-85
2022/05/15 05:08:39;;;;;;;3.85;2.08;;;26.90;1.00;;;;;;5092909;28;20524;-86
2022/05/15 05:11:13;;;;;;;4.53;2.30;;;27.10;1.00;;;;;;5107656;28;20210;-87
2022/05/15 05:13:40;;;;;;;4.10;1.80;;;27.30;1.00;;;;;;5100884;28;20574;-84
2022/05/15 05:16:06;;;;;;;6.78;2.00;;;27.50;1.00;;;;;;5119756;28;20230;-86
2022/05/15 05:18:33;;;;;;;;;;;28.00;1.00;;;;;;5115643;28;20266;-90
2022/05/15 05:21:02;;;;;;;;;;;28.50;1.00;;;;;;5132778;28;20330;-87
2022/05/15 05:23:35;;;;;;;5.10;2.00;;;28.90;1.00;;;;;;5138371;28;19924;-91
2022/05/15 05:26:11;;;;;;;3.97;1.75;;;29.30;1.00;;;;;;5138699;28;20186;-89
2022/05/15 05:28:40;;;;;;;4.10;1.70;;;29.60;1.00;;;;;;5137997;28;20181;-89
2022/05/15 05:31:09;;;;;;;;;;;29.80;1.00;;;;;;5138537;28;19919;-88
2022/05/15 05:33:40;;;;;;;;;;;29.70;1.00;;;;;;5138522;28;19908;-87
2022/05/15 05:36:09;;;;;;;4.72;1.83;;;29.80;1.00;;;;;;5118476;28;20538;-86
2022/05/15 05:38:36;;;;;;;5.80;2.13;;;30.00;1.00;;;;;;5112686;28;20287;-86
2022/05/15 05:41:03;;;;;;;5.20;1.90;;;30.20;1.00;;;;;;5107757;28;20278;-86
2022/05/15 05:43:38;;;;;;;5.38;2.25;;;30.50;1.00;;;;;;5111984;28;20262;-89
2022/05/15 05:46:11;;;;;;;4.47;2.33;;;30.70;1.00;;;;;;5100642;27;20647;-88
2022/05/15 05:48:39;;;;;;;4.25;1.90;;;31.10;1.00;;;;;;5099839;28;20203;-84
2022/05/15 05:51:06;;;;;;;10.13;5.60;;;31.40;1.00;;;;;;5115452;28;20215;-85
2022/05/15 05:53:34;;;;;;;5.78;2.50;;;31.70;1.00;;;;;;5112794;28;20629;-89
2022/05/15 05:56:03;;;;;;;5.88;2.00;;;32.00;1.00;;;;;;5093976;28;20240;-88
2022/05/15 05:58:30;;;;;;;6.30;1.92;;;32.00;1.00;;;;;;5111237;28;20218;-89
2022/05/15 06:00:57;;;;;;;5.43;2.00;;;31.80;1.00;;;;;;5123962;28;20243;-90
2022/05/15 06:06:09;;;;;;;4.93;1.90;;;32.20;1.00;;;;;;5111992;28;20568;-89
2022/05/15 06:08:37;;;;;;;4.40;1.88;;;32.70;1.00;;;;;;5101896;28;20199;-86
2022/05/15 06:11:04;;;;;;;3.53;1.73;;;33.00;1.00;;;;;;5109286;28;20206;-86
2022/05/15 06:13:31;;;;;;;4.22;1.63;;;33.20;1.00;;;;;;5111670;28;20628;-84
2022/05/15 06:15:59;;;;;;;5.93;1.98;;;33.40;1.00;;;;;;5112733;28;20240;-90
2022/05/15 06:18:26;;;;;;;4.57;1.67;;;33.60;1.00;;;;;;5112757;28;20230;-88
2022/05/15 06:20:53;;;;;;;6.63;2.22;;;34.00;1.00;;;;;;5112493;28;20202;-90
2022/05/15 06:23:21;;;;;;;4.82;2.05;;;34.10;1.00;;;;;;5112554;28;20600;-91
2022/05/15 06:25:49;;;;;;;5.40;2.25;;;34.20;1.00;;;;;;5112577;28;20708;-88
2022/05/15 06:28:16;;;;;;;5.55;2.72;;;34.20;1.00;;;;;;5113639;28;20263;-87
2022/05/15 06:30:43;;;;;;;5.00;1.90;;;34.30;1.00;;;;;;5112528;28;20782;-87
2022/05/15 06:33:11;;;;;;;4.68;1.55;;;34.50;1.00;;;;;;5112674;28;20206;-88
2022/05/15 06:35:38;;;;;;;5.32;2.20;;;34.50;1.00;;;;;;5112510;28;20252;-86
2022/05/15 06:38:07;;;;;;;4.65;1.80;;;34.60;1.00;;;;;;5113700;28;20190;-87
2022/05/15 06:40:34;;;;;;;4.50;1.70;;;34.70;1.00;;;;;;5114268;28;20241;-87
2022/05/15 06:43:03;;;;;;;4.47;1.95;;;34.80;1.00;;;;;;5116071;28;20214;-89
2022/05/15 06:45:31;;;;;;;6.88;3.58;;;34.90;1.00;;;;;;5096644;28;20187;-88
2022/05/15 06:47:57;;;;;;;5.47;2.35;;;34.90;1.00;;;;;;5103155;28;20220;-87
2022/05/15 06:50:25;;;;;;;3.20;1.63;;;34.30;1.00;;;;;;5121452;27;20624;-84
2022/05/15 06:52:53;;;;;;;6.20;1.45;;;33.90;1.00;;;;;;5124663;27;20196;-84
2022/05/15 06:55:22;;;;;;;5.78;2.80;;;33.40;1.00;;;;;;5128321;27;20300;-86
2022/05/15 06:57:50;;;;;;;5.60;2.60;;;33.50;1.00;;;;;;5136241;27;20190;-85
2022/05/15 07:00:20;;;;;;;3.55;1.50;;;33.70;1.00;;;;;;5099649;27;20191;-87
2022/05/15 07:02:48;;;;;;;3.35;1.63;;;34.00;1.00;;;;;;5095397;28;20256;-87
2022/05/15 07:05:18;;;;;;;6.53;4.38;;;34.10;1.00;;;;;;5096136;28;20206;-84
2022/05/15 07:07:46;;;;;;;10.55;5.15;;;33.80;1.00;;;;;;5093985;28;20222;-84
2022/05/15 07:10:13;;;;;;;6.85;3.67;;;33.70;1.00;;;;;;5094325;28;20274;-84
2022/05/15 07:12:40;;;;;;;9.45;5.65;;;33.50;1.00;;;;;;5095390;28;20278;-86
2022/05/15 07:15:08;;;;;;;12.88;8.13;;;33.40;1.00;;;;;;5097035;28;20259;-87
2022/05/15 07:17:37;;;;;;;4.07;2.15;;;33.50;1.00;;;;;;5095446;28;20263;-85
2022/05/15 07:20:05;;;;;;;18.52;10.88;;;33.90;1.00;;;;;;5094854;28;20622;-87
2022/05/15 07:22:33;;;;;;;21.70;12.82;;;34.10;1.00;;;;;;5095364;28;20190;-89
2022/05/15 07:25:00;;;;;;;7.60;3.50;;;33.90;1.00;;;;;;5095525;28;20222;-88
2022/05/15 07:27:27;;;;;;;5.32;2.72;;;34.00;1.00;;;;;;5094943;28;20245;-86
2022/05/15 07:29:54;;;;;;;13.13;6.68;;;34.30;1.00;;;;;;5095222;28;20202;-85
2022/05/15 07:32:21;;;;;;;3.22;1.45;;;34.60;1.00;;;;;;5096317;28;20234;-86
2022/05/15 07:34:49;;;;;;;4.43;2.00;;;34.70;1.00;;;;;;5110642;28;20218;-89
2022/05/15 07:37:17;;;;;;;29.33;15.57;;;34.90;1.00;;;;;;5114970;28;20194;-88
2022/05/15 07:39:44;;;;;;;16.45;9.43;;;35.10;1.00;;;;;;5115472;28;20193;-89
2022/05/15 07:42:11;;;;;;;6.15;2.85;;;34.70;1.00;;;;;;5114837;28;20190;-88
2022/05/15 07:44:38;;;;;;;8.45;3.70;;;33.60;1.00;;;;;;5115232;28;20223;-88
2022/05/15 07:47:06;;;;;;;15.93;10.85;;;33.50;1.00;;;;;;5115223;28;20254;-89
2022/05/15 07:49:33;;;;;;;3.85;2.20;;;33.70;1.00;;;;;;5115433;28;20186;-86
2022/05/15 07:52:06;;;;;;;6.43;1.80;;;33.70;1.00;;;;;;5119629;28;20194;-86
2022/05/15 07:54:34;;;;;;;5.32;3.05;;;33.70;1.00;;;;;;5099023;28;20299;-88
2022/05/15 07:57:01;;;;;;;6.88;3.20;;;33.90;1.00;;;;;;5096508;28;20223;-89
2022/05/15 07:59:29;;;;;;;4.93;2.00;;;33.90;1.00;;;;;;5094832;28;20194;-86
2022/05/15 08:01:58;;;;;;;4.70;1.52;;;33.90;1.00;;;;;;5094635;28;20194;-88
2022/05/15 08:04:25;;;;;;;10.27;6.28;;;34.20;1.00;;;;;;5094379;28;20307;-88
2022/05/15 08:09:37;;;;;;;5.22;2.78;;;34.10;1.00;;;;;;5094322;28;20190;-84
2022/05/15 08:12:05;;;;;;;6.13;2.90;;;33.90;1.00;;;;;;5098180;28;20223;-87
2022/05/15 08:14:32;;;;;;;5.70;2.88;;;33.80;1.00;;;;;;5094305;28;20199;-86
2022/05/15 08:17:00;;;;;;;8.30;4.43;;;33.80;1.00;;;;;;5093918;28;20245;-86
2022/05/15 08:24:58;;;;;;;3.50;1.45;;;33.90;1.00;;;;;;5095422;28;20202;-86
2022/05/15 08:27:25;;;;;;;12.82;5.68;;;34.00;1.00;;;;;;5093960;28;20183;-87
2022/05/15 08:29:52;;;;;;;5.43;2.58;;;33.90;1.00;;;;;;5094058;28;20203;-87
2022/05/15 08:32:19;;;;;;;15.10;9.20;;;34.00;1.00;;;;;;5093973;28;20214;-90
2022/05/15 08:34:46;;;;;;;18.48;9.93;;;34.00;1.00;;;;;;5093947;28;20226;-87
2022/05/15 08:37:13;;;;;;;5.00;1.80;;;33.90;1.00;;;;;;5094023;28;20226;-87
2022/05/15 08:40:06;;;;;;;5.05;1.48;;;33.80;1.00;;;;;;5095632;28;20256;-85
2022/05/15 08:42:42;;;;;;;17.17;10.32;;;33.70;1.00;;;;;;5097876;28;20201;-87
2022/05/15 08:45:14;;;;;;;16.00;7.82;;;33.50;1.00;;;;;;5093574;28;20306;-86
2022/05/15 08:47:45;;;;;;;7.18;3.97;;;33.70;1.00;;;;;;5093567;28;20199;-87
2022/05/15 08:50:14;;;;;;;7.88;4.28;;;33.90;1.00;;;;;;5093357;28;20544;-90
2022/05/15 08:52:48;;;;;;;4.82;2.08;;;33.80;1.00;;;;;;5100094;28;20195;-83
2022/05/15 08:55:19;;;;;;;4.38;1.40;;;33.70;1.00;;;;;;5094965;28;20229;-87
2022/05/15 08:57:52;;;;;;;3.47;1.67;;;33.60;1.00;;;;;;5093062;28;20631;-85
2022/05/15 09:00:24;;;;;;;9.15;5.13;;;33.60;1.00;;;;;;5093576;28;20223;-85
2022/05/15 09:02:51;;;;;;;20.95;11.63;;;33.60;1.00;;;;;;5092432;28;20267;-85
2022/05/15 09:05:18;;;;;;;;;;;33.50;1.00;;;;;;5093471;28;20302;-87
2022/05/15 09:07:59;;;;;;;10.75;5.13;;;33.40;1.00;;;;;;5093477;28;20056;-87
2022/05/15 09:10:33;;;;;;;5.35;1.58;;;33.40;1.00;;;;;;5093400;28;20190;-87
2022/05/15 09:13:09;;;;;;;3.42;1.33;;;33.20;1.00;;;;;;5093390;28;20164;-88
2022/05/15 09:15:41;;;;;;;14.93;8.32;;;33.10;1.00;;;;;;5093285;28;20236;-86
2022/05/15 09:18:16;;;;;;;3.75;2.10;;;33.10;1.00;;;;;;5093547;28;20199;-86
2022/05/15 09:20:49;;;;;;;8.10;4.78;;;33.00;1.00;;;;;;5093196;28;20628;-84
2022/05/15 09:23:24;;;;;;;;;;;32.70;1.00;;;;;;5099708;28;20111;-84
2022/05/15 09:25:54;;;;;;;5.80;2.97;;;32.40;1.00;;;;;;5113291;28;20204;-84
2022/05/15 09:28:23;;;;;;;;;;;32.20;1.00;;;;;;5113301;28;20044;-86
2022/05/15 09:30:53;;;;;;;4.53;2.10;;;31.90;1.00;;;;;;5113376;28;20346;-88
2022/05/15 09:33:29;;;;;;;32.75;14.02;;;31.40;1.00;;;;;;5113011;28;20256;-85
2022/05/15 09:36:22;;;;;;;46.78;17.52;;;30.80;1.00;;;;;;5113128;28;20201;-84
2022/05/15 09:38:51;;;;;;;10.38;4.30;;;30.10;1.00;;;;;;5113290;28;20258;-84
2022/05/15 09:44:07;;;;;;;36.28;12.60;;;28.80;1.00;;;;;;5120831;28;20646;-85
2022/05/15 09:46:34;;;;;;;5.90;2.00;;;28.40;1.00;;;;;;5112544;28;20533;-87
2022/05/15 09:49:03;;;;;;;;;;;28.20;1.00;;;;;;5113593;28;20048;-86
2022/05/15 09:51:40;;;;;;;41.88;16.50;;;28.00;1.00;;;;;;5113108;28;20205;-89
2022/05/15 09:54:28;;;;;;;3.17;1.63;;;27.80;1.00;;;;;;5112274;28;20244;-88
2022/05/15 09:57:10;;;;;;;11.57;5.18;;;27.40;1.00;;;;;;5113003;28;20236;-86
2022/05/15 09:59:39;;;;;;;26.73;9.45;;;27.10;1.00;;;;;;5113048;28;20195;-88
2022/05/15 10:02:16;;;;;;;27.52;10.68;;;26.70;1.00;;;;;;5112687;28;20191;-85
2022/05/15 10:04:48;;;;;;;8.70;3.47;;;26.50;1.00;;;;;;5113078;28;20742;-84
2022/05/15 10:07:34;;;;;;;4.25;1.60;;;26.40;1.00;;;;;;5112854;28;20247;-82
2022/05/15 10:10:16;;;;;;;62.40;21.77;;;26.30;1.00;;;;;;5105477;28;20653;-84
2022/05/15 10:12:44;;;;;;;13.07;5.88;;;26.00;1.00;;;;;;5092401;28;20183;-84
2022/05/15 10:15:21;;;;;;;3.85;1.52;;;25.90;1.00;;;;;;5095974;28;20214;-87
2022/05/15 10:17:53;;;;;;;7.28;3.75;;;25.80;1.00;;;;;;5096653;28;20223;-84
2022/05/15 10:20:24;;;;;;;37.80;17.15;;;25.80;1.00;;;;;;5096405;28;20536;-86
2022/05/15 10:22:58;;;;;;;7.97;3.33;;;25.60;1.00;;;;;;5100445;28;20297;-84
2022/05/15 10:25:36;;;;;;;4.75;1.67;;;25.50;1.00;;;;;;5124739;28;20240;-87
2022/05/15 10:28:14;;;;;;;12.43;6.00;;;25.30;1.00;;;;;;5116430;28;20282;-86
2022/05/15 10:30:52;;;;;;;13.85;7.70;;;25.20;1.00;;;;;;5116933;28;20198;-86
2022/05/15 10:33:20;;;;;;;8.45;4.35;;;25.20;1.00;;;;;;5118347;28;20218;-83
2022/05/15 10:35:56;;;;;;;4.70;2.38;;;25.20;1.00;;;;;;5116152;28;20234;-86
2022/05/15 10:38:39;;;;;;;3.65;1.58;;;25.10;1.00;;;;;;5117895;28;20167;-86
2022/05/15 10:41:15;;;;;;;6.30;3.50;;;25.00;1.00;;;;;;5116502;28;20175;-86
2022/05/15 10:44:03;;;;;;;3.42;1.83;;;25.00;1.00;;;;;;5116770;28;20528;-87
2022/05/15 10:46:40;;;;;;;14.93;7.95;;;24.90;1.00;;;;;;5117718;28;20185;-87
2022/05/15 10:49:23;;;;;;;3.20;2.03;;;24.90;1.00;;;;;;5116301;28;20191;-87
2022/05/15 10:51:57;;;;;;;12.35;7.45;;;24.90;1.00;;;;;;5116005;28;20700;-88
2022/05/15 10:57:31;;;;;;;4.35;1.90;;;24.80;1.00;;;;;;5099617;28;20530;-85
2022/05/15 11:00:12;;;;;;;10.75;4.13;;;24.50;1.00;;;;;;5097377;28;20238;-84
2022/05/15 11:03:15;;;;;;;17.23;8.52;;;24.40;1.00;;;;;;5095636;28;20261;-87
2022/05/15 11:05:55;;;;;;;4.07;2.00;;;24.30;1.00;;;;;;5103634;28;20211;-87
2022/05/15 11:08:35;;;;;;;3.17;2.08;;;24.30;1.00;;;;;;5095561;28;20229;-84
2022/05/15 11:11:07;;;;;;;9.57;3.72;;;24.20;1.00;;;;;;5110935;28;20217;-87
2022/05/15 11:13:40;;;;;;;14.10;8.43;;;24.30;1.00;;;;;;5097886;28;20199;-85
2022/05/15 11:16:12;;;;;;;5.03;2.08;;;24.40;1.00;;;;;;5097933;28;20275;-89
2022/05/15 11:18:49;;;;;;;3.53;2.00;;;24.30;1.00;;;;;;5095065;28;20644;-82
2022/05/15 11:21:23;;;;;;;6.30;2.72;;;24.20;1.00;;;;;;5096944;28;20274;-86
2022/05/15 11:23:59;;;;;;;7.00;4.32;;;24.20;1.00;;;;;;5109614;28;20182;-86
2022/05/15 11:26:40;;;;;;;5.50;2.40;;;24.30;1.00;;;;;;5128123;28;20221;-88
2022/05/15 11:29:10;;;;;;;3.60;1.90;;;24.10;1.00;;;;;;5120261;28;20195;-86
2022/05/15 11:31:43;;;;;;;4.50;1.80;;;24.10;1.00;;;;;;5115893;28;20248;-83
2022/05/15 11:34:11;;;;;;;4.15;2.10;;;24.10;1.00;;;;;;5115410;28;20222;-84
2022/05/15 11:36:40;;;;;;;4.47;1.98;;;24.10;1.00;;;;;;5115317;28;20290;-84
2022/05/15 11:39:24;;;;;;;5.15;2.30;;;24.10;1.00;;;;;;5115274;28;20237;-84
2022/05/15 11:42:17;;;;;;;8.10;4.38;;;24.10;1.00;;;;;;5115270;28;20183;-84
2022/05/15 11:44:46;;;;;;;4.53;2.05;;;24.00;1.00;;;;;;5115022;28;20615;-84
2022/05/15 11:47:32;;;;;;;4.53;1.95;;;24.10;1.00;;;;;;5114936;28;20252;-84
2022/05/15 11:50:10;;;;;;;10.85;4.93;;;24.10;1.00;;;;;;5114565;28;20586;-84
2022/05/15 11:52:41;;;;;;;18.17;7.18;;;24.10;1.00;;;;;;5114344;28;20639;-85
2022/05/15 11:55:47;;;;;;;9.88;4.15;;;24.10;1.00;;;;;;5094573;28;20227;-83
2022/05/15 11:58:36;;;;;;;5.00;2.00;;;24.00;1.00;;;;;;5094442;28;20191;-85
2022/05/15 12:01:19;;;;;;;44.65;16.48;;;23.90;1.00;;;;;;5094523;28;20184;-84
2022/05/15 12:03:56;;;;;;;10.95;5.45;;;24.00;1.00;;;;;;5094729;28;20222;-84
2022/05/15 12:06:27;;;;;;;5.43;2.42;;;23.90;1.00;;;;;;5093943;28;20295;-84
2022/05/15 12:09:30;;;;;;;4.22;1.50;;;23.70;1.00;;;;;;5094317;28;20211;-83
2022/05/15 12:12:17;;;;;;;7.78;4.80;;;23.60;1.00;;;;;;5089314;28;20282;-84
2022/05/15 12:15:04;;;;;;;13.20;6.78;;;23.60;1.00;;;;;;5093888;28;20226;-84
2022/05/15 12:17:34;;;;;;;3.92;2.20;;;23.60;1.00;;;;;;5094157;28;20598;-84
2022/05/15 12:20:07;;;;;;;5.75;2.40;;;23.70;1.00;;;;;;5094130;28;20192;-84
2022/05/15 12:22:38;;;;;;;4.45;1.80;;;23.70;1.00;;;;;;5101325;28;20180;-85
2022/05/15 12:25:11;;;;;;;3.95;1.50;;;23.60;1.00;;;;;;5093617;28;20573;-87
2022/05/15 12:27:51;;;;;;;3.63;1.70;;;23.40;1.00;;;;;;5094055;28;20233;-88
2022/05/15 12:30:33;;;;;;;4.22;1.90;;;23.30;1.00;;;;;;5097694;28;20221;-89
2022/05/15 12:33:04;;;;;;;5.82;2.70;;;23.10;1.00;;;;;;5100723;28;20628;-85
2022/05/15 12:35:34;;;;;;;7.43;4.50;;;23.00;1.00;;;;;;5095767;28;20272;-85
2022/05/15 12:38:07;;;;;;;8.23;3.67;;;23.00;1.00;;;;;;5092986;28;20263;-86
2022/05/15 12:40:37;;;;;;;5.60;2.30;;;23.00;1.00;;;;;;5093739;28;20267;-86
2022/05/15 12:43:18;;;;;;;2.90;1.50;;;23.00;1.00;;;;;;5094348;28;20675;-84
2022/05/15 12:45:47;;;;;;;6.47;1.67;;;23.00;1.00;;;;;;5093881;28;20300;-86
2022/05/15 12:48:14;;;;;;;2.20;1.27;;;23.00;1.00;;;;;;5093650;28;20613;-85
2022/05/15 12:50:49;;;;;;;5.80;2.60;;;23.00;1.00;;;;;;5092956;28;20198;-83
2022/05/15 12:53:21;;;;;;;5.85;1.83;;;22.90;1.00;;;;;;5100948;28;20224;-83
2022/05/15 12:55:49;;;;;;;4.97;2.00;;;22.90;1.00;;;;;;5114179;28;20608;-83
2022/05/15 12:58:30;;;;;;;5.63;1.95;;;22.90;1.00;;;;;;5113925;28;20195;-83
2022/05/15 13:00:58;;;;;;;3.75;1.75;;;22.90;1.00;;;;;;5113419;28;20211;-83
2022/05/15 13:03:26;;;;;;;4.53;2.80;;;22.90;1.00;;;;;;5113232;28;20195;-83
2022/05/15 13:05:55;;;;;;;5.35;2.92;;;22.90;1.00;;;;;;5113041;28;20703;-83
2022/05/15 13:08:23;;;;;;;6.95;2.30;;;22.90;1.00;;;;;;5113117;28;20689;-84
2022/05/15 13:10:55;;;;;;;6.85;2.13;;;23.00;1.00;;;;;;5113347;28;20678;-84
2022/05/15 13:13:25;;;;;;;4.45;2.55;;;23.00;1.00;;;;;;5112793;28;20186;-86
2022/05/15 13:15:55;;;;;;;4.25;2.65;;;23.00;1.00;;;;;;5098611;28;20278;-87
2022/05/15 13:18:27;;;;;;;7.22;2.40;;;23.00;1.00;;;;;;5092995;28;20203;-86
2022/05/15 13:21:01;;;;;;;4.90;2.08;;;23.10;1.00;;;;;;5093055;28;20211;-86
2022/05/15 13:23:32;;;;;;;3.95;2.30;;;23.10;1.00;;;;;;5092909;28;20230;-86
2022/05/15 13:26:02;;;;;;;2.90;2.13;;;23.10;1.00;;;;;;5099528;28;20268;-85
2022/05/15 13:28:31;;;;;;;4.65;2.47;;;23.00;1.00;;;;;;5098515;28;20191;-86
2022/05/15 13:30:58;;;;;;;5.88;2.85;;;23.00;1.00;;;;;;5092572;28;20194;-86
2022/05/15 13:33:29;;;;;;;5.13;2.80;;;22.90;1.00;;;;;;5105472;28;20187;-87
2022/05/15 13:36:15;;;;;;;6.63;3.10;;;22.90;1.00;;;;;;5119723;28;20189;-87
2022/05/15 13:44:13;;;;;;;5.93;2.88;;;22.80;1.00;;;;;;5112828;28;20183;-84